Time;durP1;ratioP1;P1;durP2;ratioP2;P2;SDS_P1;SDS_P2;PMS_P1;PMS_P2;Temp;Humidity;BMP_temperature;BMP_pressure;BME280_temperature;BME280_humidity;BME280_pressure;Samples;Min_cycle;Max_cycle;Signal;HPM_P1;HPM_P2
2022/08/23 00:01:38;;;;;;;14.48;9.70;;;;;;;16.77;100.00;101330.78;4916787;29;20070;-69
2022/08/23 00:04:10;;;;;;;14.82;10.18;;;;;;;16.67;100.00;101332.50;4900735;29;20048;-68
2022/08/23 00:06:37;;;;;;;15.13;10.73;;;;;;;16.59;100.00;101327.72;4914829;29;20046;-67
2022/08/23 00:09:04;;;;;;;14.90;9.50;;;;;;;16.56;100.00;101325.25;4923979;29;20092;-69
2022/08/23 00:11:43;;;;;;;16.85;10.35;;;;;;;16.62;100.00;101321.19;4913559;29;20413;-69
2022/08/23 00:14:16;;;;;;;15.27;11.10;;;;;;;16.54;100.00;101319.16;4897506;29;20060;-68
2022/08/23 00:16:43;;;;;;;19.85;12.73;;;;;;;16.56;100.00;101318.03;4920094;29;20114;-68
2022/08/23 00:19:12;;;;;;;20.10;12.80;;;;;;;16.65;100.00;101315.56;4909033;29;20058;-68
2022/08/23 00:21:38;;;;;;;18.02;11.15;;;;;;;16.69;100.00;101309.81;4922769;29;20044;-69
2022/08/23 00:24:06;;;;;;;17.33;11.82;;;;;;;16.72;100.00;101309.63;4912560;29;20055;-69
2022/08/23 00:26:56;;;;;;;16.73;11.82;;;;;;;16.61;100.00;101312.28;4904832;29;20047;-68
2022/08/23 00:29:30;;;;;;;19.70;11.05;;;;;;;16.43;100.00;101316.47;4916666;29;20059;-68
2022/08/23 00:31:57;;;;;;;16.00;10.48;;;;;;;16.29;100.00;101314.88;4913786;29;20082;-67
2022/08/23 00:34:23;;;;;;;16.38;11.50;;;;;;;16.20;100.00;101308.38;4900423;29;20118;-68
2022/08/23 00:36:49;;;;;;;15.02;11.80;;;;;;;16.37;100.00;101316.97;4897875;29;20111;-69
2022/08/23 00:39:15;;;;;;;21.73;12.48;;;;;;;16.22;100.00;101314.53;4920866;29;20039;-68
2022/08/23 00:41:41;;;;;;;19.60;11.52;;;;;;;16.04;100.00;101308.75;4903685;29;20032;-69
2022/08/23 00:49:54;;;;;;;19.73;11.25;;;;;;;16.03;100.00;101312.41;4918489;29;20039;-68
2022/08/23 00:52:29;;;;;;;23.25;12.05;;;;;;;15.89;100.00;101311.78;4901879;29;20048;-68
2022/08/23 00:54:55;;;;;;;19.23;13.90;;;;;;;16.15;100.00;101312.44;4911060;29;20032;-69
2022/08/23 00:57:21;;;;;;;18.38;13.10;;;;;;;15.97;100.00;101312.06;4916177;29;20043;-69
2022/08/23 00:59:46;;;;;;;18.45;11.82;;;;;;;15.90;100.00;101317.03;4920300;29;20059;-68
2022/08/23 01:02:13;;;;;;;19.27;12.40;;;;;;;15.85;100.00;101307.63;4919838;29;20040;-69
2022/08/23 01:04:43;;;;;;;12.60;10.65;;;;;;;15.99;100.00;101312.78;4914525;29;20065;-69
2022/08/23 01:07:35;;;;;;;14.02;11.43;;;;;;;16.01;100.00;101316.19;4913666;29;20069;-68
2022/08/23 01:10:18;;;;;;;16.77;10.77;;;;;;;16.02;100.00;101317.94;4893866;29;20062;-68
2022/08/23 01:12:51;;;;;;;18.92;13.25;;;;;;;15.95;100.00;101316.69;4904764;29;20048;-69
2022/08/23 01:15:25;;;;;;;15.57;11.55;;;;;;;15.79;100.00;101307.13;4903509;29;20050;-69
2022/08/23 01:18:01;;;;;;;23.10;12.95;;;;;;;15.80;100.00;101324.13;4894565;29;20127;-69
2022/08/23 01:20:35;;;;;;;19.00;13.23;;;;;;;15.84;100.00;101319.38;4905947;29;20048;-68
2022/08/23 01:23:28;;;;;;;19.00;13.85;;;;;;;15.72;100.00;101324.72;4895774;29;20036;-69
2022/08/23 01:25:54;;;;;;;18.95;12.02;;;;;;;15.77;100.00;101317.16;4907984;29;20087;-69
2022/08/23 01:28:20;;;;;;;19.85;12.05;;;;;;;15.77;100.00;101325.22;4906857;29;20056;-69
2022/08/23 01:30:46;;;;;;;14.93;11.18;;;;;;;15.59;100.00;101331.13;4903584;29;20048;-69
2022/08/23 01:33:12;;;;;;;15.73;12.00;;;;;;;15.56;100.00;101334.88;4909671;29;20465;-68
2022/08/23 01:35:42;;;;;;;19.40;13.55;;;;;;;15.63;100.00;101325.44;4918115;29;20115;-68
2022/08/23 01:38:09;;;;;;;20.77;13.80;;;;;;;15.52;100.00;101330.75;4899417;29;20046;-69
2022/08/23 01:40:35;;;;;;;17.35;13.98;;;;;;;15.53;100.00;101327.06;4918296;29;20046;-68
2022/08/23 01:43:00;;;;;;;18.33;13.93;;;;;;;15.55;100.00;101320.59;4907556;29;20035;-69
2022/08/23 01:45:27;;;;;;;20.38;13.20;;;;;;;15.61;100.00;101324.63;4905042;29;20040;-69
2022/08/23 01:47:53;;;;;;;19.65;12.85;;;;;;;15.42;100.00;101333.28;4892759;29;20909;-69
2022/08/23 01:50:20;;;;;;;16.77;11.95;;;;;;;15.34;100.00;101329.44;4902400;29;20043;-69
2022/08/23 01:52:45;;;;;;;17.83;12.75;;;;;;;15.45;100.00;101322.28;4910305;29;20079;-68
2022/08/23 01:55:11;;;;;;;23.33;12.77;;;;;;;15.49;100.00;101328.28;4903202;29;20059;-68
2022/08/23 01:57:39;;;;;;;19.17;13.07;;;;;;;15.47;100.00;101323.03;4901849;29;20831;-69
2022/08/23 02:00:07;;;;;;;20.98;13.13;;;;;;;15.41;100.00;101322.63;4909673;29;20059;-68
2022/08/23 02:02:38;;;;;;;21.85;13.60;;;;;;;15.44;100.00;101327.78;4921682;29;20055;-68
2022/08/23 02:05:05;;;;;;;22.10;12.93;;;;;;;15.36;100.00;101331.06;4919633;29;20055;-68
2022/08/23 02:07:31;;;;;;;21.38;13.13;;;;;;;15.34;100.00;101327.59;4903003;29;20123;-68
2022/08/23 02:09:59;;;;;;;18.25;13.75;;;;;;;15.26;100.00;101332.69;4916605;29;20035;-68
2022/08/23 02:12:25;;;;;;;19.45;12.73;;;;;;;15.25;100.00;101333.66;4910416;29;20830;-69
2022/08/23 02:14:57;;;;;;;28.17;12.98;;;;;;;15.21;100.00;101332.19;4904484;29;20036;-69
2022/08/23 02:17:24;;;;;;;24.52;12.48;;;;;;;15.20;100.00;101334.00;4914020;29;20466;-68
2022/08/23 02:19:50;;;;;;;18.17;13.25;;;;;;;15.21;100.00;101325.00;4923257;29;20051;-69
2022/08/23 02:22:15;;;;;;;20.15;15.27;;;;;;;15.23;100.00;101330.25;4897824;29;20543;-69
2022/08/23 02:24:43;;;;;;;19.38;15.48;;;;;;;15.20;100.00;101327.78;4896435;29;20075;-69
2022/08/23 02:27:10;;;;;;;20.83;15.88;;;;;;;15.20;100.00;101327.78;4900463;29;20575;-69
2022/08/23 02:29:38;;;;;;;20.23;15.00;;;;;;;15.22;100.00;101328.56;4911495;29;20043;-67
2022/08/23 02:32:04;;;;;;;19.15;14.35;;;;;;;15.12;100.00;101320.31;4918939;29;20052;-68
2022/08/23 02:34:30;;;;;;;25.70;14.30;;;;;;;15.15;100.00;101328.13;4896134;29;20040;-68
2022/08/23 02:36:56;;;;;;;23.48;13.32;;;;;;;15.13;100.00;101324.72;4899251;29;20707;-69
2022/08/23 02:39:22;;;;;;;22.35;14.52;;;;;;;15.15;100.00;101317.38;4896883;29;20475;-69
2022/08/23 02:41:48;;;;;;;28.00;16.75;;;;;;;15.09;100.00;101325.06;4905676;29;20050;-69
2022/08/23 02:44:15;;;;;;;19.92;13.98;;;;;;;15.10;100.00;101319.56;4907010;29;20070;-68
2022/08/23 02:46:41;;;;;;;18.83;14.38;;;;;;;15.01;100.00;101318.44;4909550;29;20920;-69
2022/08/23 02:49:07;;;;;;;18.60;13.52;;;;;;;14.91;100.00;101311.16;4918461;29;20535;-68
2022/08/23 02:51:36;;;;;;;17.05;13.25;;;;;;;14.82;100.00;101315.41;4909620;29;20051;-69
2022/08/23 02:54:03;;;;;;;18.77;13.57;;;;;;;14.71;100.00;101318.88;4910946;29;20042;-69
2022/08/23 02:56:29;;;;;;;22.35;15.57;;;;;;;14.83;100.00;101318.94;4903125;29;20199;-69
2022/08/23 02:58:55;;;;;;;24.25;16.17;;;;;;;14.98;100.00;101313.28;4919837;29;20051;-69
2022/08/23 03:01:25;;;;;;;25.20;15.25;;;;;;;14.86;100.00;101324.06;4929109;28;20042;-69
2022/08/23 03:03:54;;;;;;;23.10;15.85;;;;;;;15.05;100.00;101319.03;4921786;29;20123;-68
2022/08/23 03:06:21;;;;;;;22.17;17.08;;;;;;;15.17;100.00;101318.16;4904226;29;20035;-70
2022/08/23 03:08:47;;;;;;;23.15;16.95;;;;;;;15.25;100.00;101313.03;4909147;29;20047;-70
2022/08/23 03:11:19;;;;;;;22.35;17.02;;;;;;;15.31;100.00;101313.53;4919420;29;20047;-69
2022/08/23 03:13:46;;;;;;;25.23;17.48;;;;;;;15.28;100.00;101317.34;4904592;29;20036;-69
2022/08/23 03:16:13;;;;;;;24.45;15.55;;;;;;;15.34;100.00;101316.00;4912193;29;20027;-69
2022/08/23 03:18:44;;;;;;;16.95;13.90;;;;;;;15.17;100.00;101325.34;4902460;29;20036;-69
2022/08/23 03:21:11;;;;;;;20.17;13.93;;;;;;;15.27;100.00;101323.69;4901428;29;20588;-68
2022/08/23 03:23:38;;;;;;;29.58;16.50;;;;;;;15.44;100.00;101314.34;4905425;29;20528;-69
2022/08/23 03:26:06;;;;;;;23.05;15.57;;;;;;;15.51;100.00;101321.81;4925947;29;20072;-69
2022/08/23 03:28:35;;;;;;;26.90;16.98;;;;;;;15.51;100.00;101324.50;4898100;29;20095;-69
2022/08/23 03:31:03;;;;;;;23.58;16.27;;;;;;;15.47;100.00;101324.88;4910801;29;20103;-69
2022/08/23 03:33:32;;;;;;;22.33;16.60;;;;;;;15.25;100.00;101330.97;4893962;29;20047;-69
2022/08/23 03:36:00;;;;;;;29.17;16.20;;;;;;;15.40;100.00;101332.50;4901428;29;20040;-68
2022/08/23 03:38:26;;;;;;;22.88;15.23;;;;;;;15.39;100.00;101332.63;4907354;29;20044;-69
2022/08/23 03:40:52;;;;;;;22.17;16.33;;;;;;;15.37;100.00;101332.75;4924069;29;20852;-69
2022/08/23 03:43:19;;;;;;;23.52;16.33;;;;;;;15.13;100.00;101335.47;4929206;29;20047;-69
2022/08/23 03:45:44;;;;;;;21.95;15.60;;;;;;;15.21;100.00;101333.06;4930578;29;20032;-68
2022/08/23 03:48:10;;;;;;;29.27;17.10;;;;;;;15.19;100.00;101337.69;4923472;29;20067;-69
2022/08/23 03:50:36;;;;;;;27.40;17.20;;;;;;;15.27;100.00;101340.66;4927259;29;20396;-68
2022/08/23 03:53:02;;;;;;;27.65;17.90;;;;;;;15.19;100.00;101351.13;4931265;29;20043;-68
2022/08/23 03:55:27;;;;;;;28.42;17.75;;;;;;;15.18;100.00;101341.34;4912321;29;20035;-69
2022/08/23 03:57:55;;;;;;;23.85;18.05;;;;;;;15.12;100.00;101336.44;4916854;29;20484;-69
2022/08/23 04:00:20;;;;;;;26.20;17.58;;;;;;;14.98;100.00;101337.44;4924560;29;20059;-69
2022/08/23 04:02:49;;;;;;;34.25;17.98;;;;;;;14.99;100.00;101346.38;4902691;29;20044;-69
2022/08/23 04:05:15;;;;;;;26.08;16.52;;;;;;;15.06;100.00;101350.34;4904908;29;20183;-69
2022/08/23 04:07:54;;;;;;;24.42;17.40;;;;;;;15.02;100.00;101351.53;4903014;29;20039;-68
2022/08/23 04:10:22;;;;;;;27.23;17.58;;;;;;;15.06;100.00;101352.13;4905430;29;20031;-69
2022/08/23 04:12:52;;;;;;;34.38;17.70;;;;;;;15.07;100.00;101343.97;4919833;28;20757;-69
2022/08/23 04:15:19;;;;;;;25.77;17.35;;;;;;;15.12;100.00;101351.69;4911719;29;20143;-69
2022/08/23 04:17:46;;;;;;;25.67;17.73;;;;;;;15.14;100.00;101353.28;4904394;29;20140;-69
2022/08/23 04:20:12;;;;;;;28.70;17.95;;;;;;;15.19;100.00;101359.16;4903578;29;20040;-69
2022/08/23 04:22:59;;;;;;;25.77;17.00;;;;;;;15.15;100.00;101360.38;4908386;29;20208;-68
2022/08/23 04:25:30;;;;;;;27.58;16.05;;;;;;;15.13;100.00;101366.84;4912335;29;20031;-68
2022/08/23 04:27:56;;;;;;;20.45;15.95;;;;;;;15.08;100.00;101369.88;4908496;29;20163;-69
2022/08/23 04:30:21;;;;;;;20.98;14.88;;;;;;;14.85;100.00;101357.25;4915601;29;20572;-69
2022/08/23 04:32:47;;;;;;;24.52;16.15;;;;;;;14.61;100.00;101368.81;4913053;29;20032;-70
2022/08/23 04:35:14;;;;;;;28.35;16.67;;;;;;;14.50;100.00;101363.34;4928038;29;20043;-69
2022/08/23 04:37:39;;;;;;;25.85;16.85;;;;;;;14.74;100.00;101363.41;4920071;29;20047;-68
2022/08/23 04:42:51;;;;;;;23.70;16.70;;;;;;;14.89;100.00;101362.28;4922113;29;20040;-69
2022/08/23 04:45:17;;;;;;;26.95;18.50;;;;;;;14.96;100.00;101358.22;4906239;29;20035;-69
2022/08/23 04:47:46;;;;;;;30.42;18.73;;;;;;;15.11;100.00;101366.97;4895829;29;20110;-69
2022/08/23 04:50:11;;;;;;;24.65;18.02;;;;;;;15.19;100.00;101372.59;4900147;29;20036;-69
2022/08/23 04:52:57;;;;;;;26.55;18.20;;;;;;;15.18;100.00;101373.59;4916872;29;20108;-69
2022/08/23 04:55:23;;;;;;;34.50;19.00;;;;;;;15.12;100.00;101379.41;4917438;29;20051;-69
2022/08/23 04:57:56;;;;;;;30.27;17.48;;;;;;;15.13;100.00;101378.44;4909631;29;20128;-69
2022/08/23 05:00:24;;;;;;;27.50;18.58;;;;;;;15.25;100.00;101382.88;4903294;29;20054;-69
2022/08/23 05:02:53;;;;;;;32.30;17.65;;;;;;;15.41;100.00;101379.06;4895688;29;21050;-69
2022/08/23 05:05:19;;;;;;;23.85;18.30;;;;;;;15.49;100.00;101384.72;4899560;29;20044;-68
2022/08/23 05:07:45;;;;;;;25.67;17.98;;;;;;;15.65;100.00;101382.63;4909312;29;20047;-69
2022/08/23 05:10:13;;;;;;;27.85;18.13;;;;;;;15.81;100.00;101382.28;4900652;29;20036;-69
2022/08/23 05:12:41;;;;;;;26.25;18.08;;;;;;;16.01;100.00;101380.75;4909932;29;20122;-69
2022/08/23 05:15:08;;;;;;;20.85;16.23;;;;;;;16.19;100.00;101384.72;4898523;29;20626;-70
2022/08/23 05:17:36;;;;;;;27.85;17.90;;;;;;;16.38;100.00;101385.97;4895746;29;20170;-69
2022/08/23 05:20:04;;;;;;;29.88;18.85;;;;;;;16.24;100.00;101395.13;4913163;29;20032;-67
2022/08/23 05:22:35;;;;;;;30.42;18.80;;;;;;;16.36;100.00;101410.28;4897073;29;20099;-69
2022/08/23 05:25:51;;;;;;;;;;;;;;;16.63;100.00;101407.28;4929949;28;20139;-69
2022/08/23 05:28:33;;;;;;;25.85;19.23;;;;;;;16.62;100.00;101412.75;4922400;29;19925;-69
2022/08/23 05:31:02;;;;;;;26.35;16.48;;;;;;;16.60;100.00;101410.19;4920604;29;20062;-69
2022/08/23 05:33:45;;;;;;;28.45;18.23;;;;;;;16.47;100.00;101409.47;4929945;28;20058;-68
2022/08/23 05:36:12;;;;;;;24.45;18.50;;;;;;;16.83;100.00;101422.72;4919855;29;20095;-68
2022/08/23 05:38:39;;;;;;;27.17;17.33;;;;;;;16.95;100.00;101418.16;4934933;28;20043;-68
2022/08/23 05:41:07;;;;;;;27.08;17.25;;;;;;;17.21;100.00;101416.03;4935820;28;20047;-68
2022/08/23 05:43:33;;;;;;;21.98;16.65;;;;;;;17.44;100.00;101413.28;4937666;28;20396;-69
2022/08/23 05:46:03;;;;;;;27.80;18.02;;;;;;;17.59;100.00;101410.16;4917337;29;20146;-69
2022/08/23 05:48:34;;;;;;;27.50;17.25;;;;;;;17.56;100.00;101413.09;4913458;28;20591;-69
2022/08/23 05:51:13;;;;;;;33.03;19.45;;;;;;;17.61;100.00;101404.63;4913018;29;20043;-69
2022/08/23 05:53:40;;;;;;;34.90;18.60;;;;;;;17.75;100.00;101415.16;4937106;28;20407;-69
2022/08/23 05:56:22;;;;;;;29.48;18.45;;;;;;;17.85;100.00;101410.69;4937667;28;20500;-68
2022/08/23 05:58:50;;;;;;;25.05;20.10;;;;;;;17.92;100.00;101415.56;4917879;29;20036;-69
2022/08/23 06:01:16;;;;;;;28.65;18.58;;;;;;;18.17;100.00;101411.63;4909223;29;20055;-68
2022/08/23 06:03:42;;;;;;;25.27;18.23;;;;;;;18.51;100.00;101412.25;4904396;29;20039;-69
2022/08/23 06:06:09;;;;;;;28.40;19.92;;;;;;;18.70;100.00;101416.91;4895900;29;20038;-68
2022/08/23 06:08:37;;;;;;;26.77;19.25;;;;;;;18.80;100.00;101418.66;4896931;29;20059;-68
2022/08/23 06:11:10;;;;;;;27.83;18.52;;;;;;;18.81;100.00;101416.81;4892819;29;20084;-69
2022/08/23 06:13:42;;;;;;;27.05;19.27;;;;;;;18.87;100.00;101417.09;4902764;29;20871;-69
2022/08/23 06:16:11;;;;;;;25.23;18.35;;;;;;;19.25;100.00;101420.94;4915364;29;20066;-69
2022/08/23 06:18:36;;;;;;;30.98;19.45;;;;;;;19.31;100.00;101430.31;4896968;29;20047;-69
2022/08/23 06:21:20;;;;;;;22.45;17.83;;;;;;;19.50;100.00;101434.91;4902774;29;20075;-68
2022/08/23 06:23:48;;;;;;;27.17;17.08;;;;;;;19.98;96.67;101439.50;4911306;29;20035;-69
2022/08/23 06:26:17;;;;;;;26.63;19.17;;;;;;;19.88;97.93;101431.38;4901063;29;20115;-69
2022/08/23 06:28:52;;;;;;;23.83;16.58;;;;;;;20.38;95.22;101433.88;4898339;29;20119;-69
2022/08/23 06:31:44;;;;;;;33.97;18.15;;;;;;;20.31;92.83;101430.91;4910392;29;20150;-69
2022/08/23 06:34:10;;;;;;;22.15;17.75;;;;;;;20.27;94.29;101425.94;4899897;29;20942;-69
2022/08/23 06:36:57;;;;;;;28.23;17.45;;;;;;;20.64;92.15;101426.88;4918137;29;20052;-69
2022/08/23 06:39:46;;;;;;;29.27;19.52;;;;;;;20.88;92.85;101422.75;4926753;29;20063;-69
2022/08/23 06:42:37;;;;;;;26.63;18.77;;;;;;;20.54;94.82;101442.31;4908216;29;20051;-69
2022/08/23 06:45:04;;;;;;;26.23;19.00;;;;;;;20.90;94.76;101426.19;4900194;29;20635;-69
2022/08/23 06:47:36;;;;;;;28.85;18.02;;;;;;;20.89;91.81;101433.47;4923723;29;20044;-68
2022/08/23 06:50:02;;;;;;;27.77;18.55;;;;;;;21.13;92.26;101432.03;4902395;29;20039;-69
2022/08/23 06:52:49;;;;;;;24.17;17.85;;;;;;;21.41;92.43;101422.91;4916769;29;20135;-69
2022/08/23 06:55:45;;;;;;;26.13;18.50;;;;;;;22.12;85.80;101423.91;4910750;29;20119;-69
2022/08/23 06:58:18;;;;;;;22.85;17.40;;;;;;;22.08;87.10;101428.75;4900200;29;20059;-69
2022/08/23 07:01:33;;;;;;;22.13;17.92;;;;;;;21.97;87.27;101426.31;4906169;29;20120;-69
2022/08/23 07:04:25;;;;;;;23.00;18.05;;;;;;;21.89;88.28;101424.41;4867249;29;20056;-69
2022/08/23 07:07:21;;;;;;;26.58;17.45;;;;;;;21.77;88.50;101419.34;4875677;29;20147;-70
2022/08/23 07:09:46;;;;;;;29.23;18.90;;;;;;;21.94;88.55;101419.34;4879847;29;20044;-69
2022/08/23 07:12:12;;;;;;;25.33;18.27;;;;;;;22.02;85.93;101414.97;4865696;29;20068;-68
2022/08/23 07:14:41;;;;;;;26.85;19.08;;;;;;;21.90;88.72;101422.53;4850382;29;20505;-69
2022/08/23 07:17:08;;;;;;;26.60;18.45;;;;;;;22.65;86.82;101420.19;4880995;29;20063;-69
2022/08/23 07:19:36;;;;;;;27.15;17.90;;;;;;;23.22;80.21;101415.00;4868956;29;20049;-70
2022/08/23 07:22:04;;;;;;;29.15;17.88;;;;;;;23.24;80.59;101413.84;4882730;29;20889;-70
2022/08/23 07:24:31;;;;;;;27.35;18.00;;;;;;;23.02;77.26;101417.16;4884685;29;20401;-69
2022/08/23 07:26:57;;;;;;;21.88;16.75;;;;;;;24.20;74.80;101417.84;4859606;29;20562;-69
2022/08/23 07:29:23;;;;;;;30.23;16.85;;;;;;;25.02;71.68;101415.75;4877797;29;20127;-68
2022/08/23 07:31:54;;;;;;;20.48;16.92;;;;;;;24.92;71.97;101415.97;4876780;29;20064;-69
2022/08/23 07:34:22;;;;;;;23.80;16.52;;;;;;;25.18;72.32;101423.91;4876809;29;20523;-69
2022/08/23 07:36:49;;;;;;;20.35;15.68;;;;;;;24.82;70.70;101422.69;4857377;29;20071;-68
2022/08/23 07:39:15;;;;;;;22.27;15.48;;;;;;;25.80;66.90;101414.81;4850083;29;20134;-68
2022/08/23 07:41:42;;;;;;;22.63;15.20;;;;;;;25.83;65.75;101425.38;4883696;29;20055;-68
2022/08/23 07:44:09;;;;;;;20.38;14.57;;;;;;;25.64;67.59;101423.94;4898241;29;20501;-70
2022/08/23 07:46:39;;;;;;;21.00;14.45;;;;;;;25.87;63.88;101431.34;4908589;29;20035;-67
2022/08/23 07:49:05;;;;;;;23.02;13.57;;;;;;;26.90;63.99;101422.44;4925918;29;20031;-69
2022/08/23 07:51:36;;;;;;;19.13;13.93;;;;;;;26.89;62.26;101423.47;4912116;29;20158;-69
2022/08/23 07:54:05;;;;;;;21.55;13.88;;;;;;;26.49;62.22;101434.69;4905260;29;21048;-70
2022/08/23 07:56:34;;;;;;;22.33;13.10;;;;;;;26.32;61.32;101434.00;4922128;29;20054;-69
2022/08/23 07:59:19;;;;;;;21.40;12.40;;;;;;;27.06;58.04;101431.31;4897544;29;20124;-68
2022/08/23 08:01:54;;;;;;;24.17;12.82;;;;;;;26.74;59.59;101427.06;4924473;29;20043;-69
2022/08/23 08:04:21;;;;;;;21.05;12.55;;;;;;;27.31;58.16;101430.97;4898102;29;20040;-69
2022/08/23 08:06:49;;;;;;;21.27;12.40;;;;;;;27.15;59.69;101440.28;4914229;29;20127;-70
2022/08/23 08:09:18;;;;;;;17.05;11.65;;;;;;;27.21;58.32;101441.41;4898923;29;21938;-70
2022/08/23 08:11:46;;;;;;;22.17;12.43;;;;;;;26.99;58.12;101448.69;4902416;29;20505;-70
2022/08/23 08:14:14;;;;;;;20.92;12.32;;;;;;;26.82;58.07;101450.78;4908210;29;20036;-69
2022/08/23 08:16:49;;;;;;;22.33;11.65;;;;;;;28.02;57.04;101451.19;4903883;29;20036;-68
2022/08/23 08:19:21;;;;;;;17.25;12.23;;;;;;;27.82;58.20;101451.00;4903945;29;20039;-71
2022/08/23 08:22:07;;;;;;;17.52;11.32;;;;;;;28.13;56.89;101445.16;4891185;29;20054;-72
2022/08/23 08:24:51;;;;;;;18.13;12.13;;;;;;;27.16;56.00;101449.34;4905838;29;20059;-72
2022/08/23 08:27:17;;;;;;;20.00;11.38;;;;;;;27.61;55.70;101449.06;4906072;29;20791;-71
2022/08/23 08:29:42;;;;;;;15.40;10.45;;;;;;;27.27;58.19;101449.72;4904442;29;20043;-71
2022/08/23 08:32:08;;;;;;;16.33;11.63;;;;;;;27.15;57.08;101453.97;4903574;29;20046;-70
2022/08/23 08:34:35;;;;;;;24.30;11.90;;;;;;;27.82;57.47;101461.94;4897525;29;20685;-71
2022/08/23 08:37:00;;;;;;;20.15;10.90;;;;;;;27.33;55.81;101453.56;4896973;29;20040;-72
2022/08/23 08:39:30;;;;;;;18.17;10.80;;;;;;;27.67;53.12;101452.91;4913157;29;20155;-68
2022/08/23 08:42:10;;;;;;;21.83;10.77;;;;;;;27.96;55.74;101457.41;4907375;29;20041;-68
2022/08/23 08:45:01;;;;;;;17.10;11.10;;;;;;;27.68;56.15;101454.59;4910552;29;20046;-69
2022/08/23 08:47:48;;;;;;;20.90;11.05;;;;;;;27.48;55.58;101456.28;4900045;29;20626;-69
2022/08/23 08:50:27;;;;;;;20.10;11.07;;;;;;;28.21;54.81;101454.25;4894173;29;20071;-70
2022/08/23 08:53:00;;;;;;;15.73;9.88;;;;;;;28.10;54.47;101455.66;4907630;29;20036;-69
2022/08/23 08:55:49;;;;;;;19.40;11.48;;;;;;;27.47;57.32;101465.53;4906908;29;20036;-72
2022/08/23 08:58:25;;;;;;;20.63;11.77;;;;;;;27.84;54.18;101459.00;4900736;29;20028;-69
2022/08/23 09:00:51;;;;;;;21.77;13.48;;;;;;;27.97;53.39;101459.16;4886502;29;20111;-69
2022/08/23 09:03:19;;;;;;;22.83;11.20;;;;;;;28.36;56.31;101457.78;4901256;29;20040;-71
2022/08/23 09:06:14;;;;;;;17.23;10.82;;;;;;;28.38;53.21;101462.06;4885000;29;20039;-71
2022/08/23 09:09:14;;;;;;;21.45;11.30;;;;;;;28.02;51.42;101461.31;4905735;29;20279;-71
2022/08/23 09:11:55;;;;;;;16.83;10.93;;;;;;;28.03;52.00;101463.84;4914401;29;20112;-71
2022/08/23 09:14:49;;;;;;;18.92;11.80;;;;;;;27.93;55.44;101459.72;4894977;29;20684;-72
2022/08/23 09:17:38;;;;;;;24.35;13.13;;;;;;;28.22;52.10;101461.47;4890712;29;20116;-70
2022/08/23 09:20:06;;;;;;;20.05;12.50;;;;;;;27.63;53.33;101466.13;4907087;29;20148;-73
2022/08/23 09:22:41;;;;;;;23.70;12.00;;;;;;;27.77;54.48;101452.63;4913910;29;20588;-70
2022/08/23 09:25:19;;;;;;;22.40;12.05;;;;;;;28.51;51.50;101457.69;4901459;29;20039;-72
2022/08/23 09:27:54;;;;;;;21.05;12.52;;;;;;;27.75;54.49;101460.16;4911044;29;20048;-71
2022/08/23 09:30:20;;;;;;;17.45;13.13;;;;;;;27.68;53.61;101451.84;4914156;29;20105;-71
2022/08/23 09:32:49;;;;;;;20.77;11.52;;;;;;;27.91;56.36;101456.31;4910660;29;20051;-70
2022/08/23 09:35:17;;;;;;;22.67;11.85;;;;;;;27.87;53.57;101459.47;4895203;29;20060;-71
2022/08/23 09:38:01;;;;;;;23.98;11.63;;;;;;;28.03;55.91;101463.84;4900409;29;20607;-70
2022/08/23 09:40:28;;;;;;;24.50;13.02;;;;;;;28.31;52.39;101466.59;4901962;29;20043;-70
2022/08/23 09:43:18;;;;;;;20.83;13.45;;;;;;;28.54;52.55;101460.06;4910961;29;20044;-71
2022/08/23 09:45:49;;;;;;;18.15;12.02;;;;;;;29.08;48.14;101462.94;4885944;29;20039;-72
2022/08/23 09:48:44;;;;;;;23.70;13.30;;;;;;;29.12;49.06;101455.16;4898246;29;20086;-70
2022/08/23 09:51:40;;;;;;;22.13;13.35;;;;;;;29.10;49.88;101463.56;4885412;29;20928;-72
2022/08/23 09:54:34;;;;;;;19.05;11.05;;;;;;;28.76;47.68;101458.91;4912352;29;20036;-71
2022/08/23 09:57:05;;;;;;;17.33;9.68;;;;;;;29.47;48.14;101457.78;4903096;29;20079;-73
2022/08/23 09:59:39;;;;;;;19.52;10.77;;;;;;;29.38;44.90;101457.16;4896403;29;20055;-70
2022/08/23 10:02:22;;;;;;;15.32;8.30;;;;;;;29.85;47.82;101447.97;4893112;29;20070;-69
2022/08/23 10:05:05;;;;;;;12.10;5.80;;;;;;;29.71;45.73;101454.50;4914717;29;20119;-70
2022/08/23 10:07:40;;;;;;;10.52;6.65;;;;;;;29.47;46.53;101455.91;4914279;28;20040;-69
2022/08/23 10:10:22;;;;;;;13.60;5.90;;;;;;;29.11;43.49;101450.69;4902641;29;20047;-69
2022/08/23 10:12:50;;;;;;;15.77;4.60;;;;;;;29.62;43.45;101461.25;4917546;29;20036;-71
2022/08/23 10:15:15;;;;;;;10.43;5.72;;;;;;;29.44;43.38;101444.47;4917917;29;20044;-69
2022/08/23 10:17:49;;;;;;;9.00;4.05;;;;;;;29.54;46.06;101451.31;4900504;29;20103;-70
2022/08/23 10:20:55;;;;;;;10.00;4.03;;;;;;;28.88;44.46;101450.97;4897726;29;20131;-70
2022/08/23 10:24:12;;;;;;;7.13;4.10;;;;;;;29.28;44.12;101445.69;4901704;29;20051;-70
2022/08/23 10:26:54;;;;;;;6.53;3.55;;;;;;;29.49;45.45;101442.81;4863181;29;20244;-70
2022/08/23 10:29:47;;;;;;;7.68;3.40;;;;;;;29.62;44.15;101439.25;4891220;29;20151;-70
2022/08/23 10:32:30;;;;;;;7.57;3.10;;;;;;;29.55;43.42;101438.41;4882477;29;20464;-70
2022/08/23 10:35:14;;;;;;;11.75;3.72;;;;;;;29.61;43.23;101441.16;4867141;29;20044;-69
2022/08/23 10:38:09;;;;;;;9.07;3.90;;;;;;;29.60;43.89;101435.88;4869381;29;20047;-70
2022/08/23 10:40:50;;;;;;;9.85;3.13;;;;;;;29.55;42.88;101436.50;4868345;29;20052;-69
2022/08/23 10:43:36;;;;;;;9.50;3.28;;;;;;;29.40;43.00;101441.28;4880161;29;20123;-69
2022/08/23 10:46:03;;;;;;;10.35;3.85;;;;;;;29.42;42.42;101434.53;4882243;29;20049;-67
2022/08/23 10:48:40;;;;;;;6.13;3.42;;;;;;;29.92;42.86;101431.47;4869928;29;20128;-69
2022/08/23 10:51:14;;;;;;;14.80;3.83;;;;;;;30.11;41.73;101425.13;4863699;29;20167;-68
2022/08/23 10:53:55;;;;;;;8.82;3.63;;;;;;;29.96;41.38;101424.50;4870046;29;20407;-68
2022/08/23 10:56:22;;;;;;;9.40;3.55;;;;;;;29.91;42.49;101425.13;4881001;29;20056;-68
2022/08/23 10:59:13;;;;;;;7.60;3.47;;;;;;;30.08;42.31;101424.72;4864228;29;20061;-69
2022/08/23 11:02:02;;;;;;;7.95;3.60;;;;;;;30.20;43.02;101428.56;4849971;29;20822;-70
2022/08/23 11:04:52;;;;;;;11.20;3.95;;;;;;;30.08;44.15;101424.72;4879764;29;20068;-69
2022/08/23 11:07:29;;;;;;;7.80;4.00;;;;;;;29.74;43.27;101423.84;4890427;29;20060;-70
2022/08/23 11:10:38;;;;;;;12.02;4.45;;;;;;;30.20;40.97;101417.53;4877433;29;20065;-69
2022/08/23 11:13:09;;;;;;;6.20;3.53;;;;;;;30.18;41.66;101420.53;4859879;29;20053;-71
2022/08/23 11:15:44;;;;;;;14.98;4.15;;;;;;;30.15;42.20;101415.44;4870968;29;20047;-69
2022/08/23 11:18:42;;;;;;;9.57;3.80;;;;;;;29.99;42.91;101415.84;4865306;29;20140;-70
2022/08/23 11:21:17;;;;;;;8.52;4.00;;;;;;;30.37;41.99;101424.31;4870563;29;20583;-71
2022/08/23 11:23:57;;;;;;;10.52;3.88;;;;;;;30.69;41.87;101419.78;4868959;29;20056;-70
2022/08/23 11:26:26;;;;;;;7.90;3.75;;;;;;;31.02;41.19;101416.09;4871908;29;20598;-70
2022/08/23 11:28:59;;;;;;;8.15;3.75;;;;;;;30.37;42.66;101415.19;4863161;29;20045;-71
2022/08/23 11:31:43;;;;;;;9.52;3.50;;;;;;;30.73;42.22;101420.25;4890469;29;20063;-73
2022/08/23 11:34:23;;;;;;;9.30;4.05;;;;;;;29.95;42.35;101420.06;4861190;29;20131;-71
2022/08/23 11:37:19;;;;;;;11.05;4.72;;;;;;;29.86;41.86;101421.31;4866249;29;20063;-69
2022/08/23 11:39:57;;;;;;;12.30;4.32;;;;;;;30.59;43.38;101427.66;4861816;29;20029;-69
2022/08/23 11:42:45;;;;;;;8.02;4.70;;;;;;;30.75;42.38;101417.28;4862119;29;20497;-70